Portada
METAR-TAF:

METAR-TAF

Aeroports :

Lanzhou, Xina

latitud: 36-02N, longitud: 103-52E, altitud: 1518 m

Observació

L'informe es va fer fa 22 minuts, a les 05:00 UTC
Vent 12 kt del Sud/Sud-Oest, variant entre Sud i Oest
Temperatura 10°C
Humitat 32%
Pressió 1015 hPa
Visibilitat 10 km o més
sense núvols per sota de 1500 mi sense presència de cumulonimbus.

METAR: ZLLL 280500Z 21006MPS 170V260 CAVOK 10/M06 Q1015 NOSIG

Hora: 13:22 (05:22 UTC)

Pronòstic

L'informe es va fer fa 8 hores i 16 minuts, a les 21:06 UTC
Pronòstic vàlid del 28 a les 00 UTC al 28 a les 24 UTC
Vent 6 kt del Sud/Sud-Oest
Visibilitat: 6000 m

TAF: ZLLL 272106Z 2800/2824 20003MPS 6000 NSC TX15/2808Z TNM10/2800Z

Observacions i pronòstics meteorològics de més de 4000 aeroports (METAR i TAF).

Les estacions disponibles són els punts grocs i vermells al mapa.

Posi el ratolí al punt desitjat per veure el nom de l'estació.

Feu clic per veure les observacions i els pronòstics meteorològics.

Per canviar el mapa: feu clic els botons verds amb una creu de color negre per apropar; al botó verd amb un guió per allunyar la imatge; o en les fletxes verdes per a mapes adjacents.


METAR-TAF: